Joliet, IL

8:01 PM CST on January 16, 2017 (GMT -0600)
Joliet Regional

Weather History for KJOT - November, 2013

Change the Weather History Date:

Saturday, November 16, 2013

  Actual Average (KARR) Record (KARR)
Temperature  
Mean Temperature 50 °F -  
Max Temperature 59 °F 45 °F 65 °F (2001)
Min Temperature 41 °F 28 °F 16 °F (2007)
Degree Days  
Heating Degree Days 15    
Moisture  
Dew Point 48 °F    
Average Humidity 87    
Maximum Humidity 94    
Minimum Humidity 75    
Precipitation  
Precipitation 0.22 in - - ()
Sea Level Pressure  
Sea Level Pressure 29.78 in    
Wind  
Wind Speed 12 mph (South)    
Max Wind Speed 21 mph    
Max Gust Speed 34 mph    
Visibility 7 miles    
Events Rain    
Averages and records for this station are not official NWS values.
T = Trace of Precipitation, MM = Missing Value Source: NWS Daily Summary

Daily Weather History Graph

Daily Weather History Graph

Search for Another Location

Airport or City:

Trip Planner

Search our weather history database for the weather conditions in past years. The results will help you decide how hot, cold, wet, or windy it might be!

Date:

Astronomy

Nov. 16, 2013 Rise Set
Actual Time 6:42 AM CST 4:31 PM CST
Civil Twilight 6:13 AM CST 5:01 PM CST
Nautical Twilight 5:39 AM CST 5:35 PM CST
Astronomical Twilight 5:06 AM CST 6:07 PM CST
Moon 4:07 PM CST (11/16) 5:38 AM CST (11/16)
Length of Visible Light 10h 48m
Length of Day
9h 48m
Waxing Gibbous, 99% of the Moon is Illuminated
Nov 16
Waxing Gibbous
Nov 17
Full
Nov 25
Last Quarter
Dec 2
New
Dec 9
First Quarter

Hourly Weather History & Observations

Time (CST) Temp. Windchill Dew Point Humidity Pressure Visibility Wind Dir Wind Speed Gust Speed Precip Events Conditions
12:15 AM 43.0 °F 36.8 °F 36.1 °F 77% 29.96 in 10.0 mi South 11.5 mph 18.4 mph N/A   Clear
12:35 AM 42.6 °F 37.8 °F 36.5 °F 79% 29.95 in 10.0 mi South 8.1 mph - N/A   Clear
12:55 AM 41.9 °F 35.4 °F 36.9 °F 82% 29.95 in 10.0 mi South 11.5 mph - N/A   Clear
1:15 AM 41.9 °F 36.3 °F 37.4 °F 84% 29.94 in 10.0 mi South 9.2 mph - N/A   Clear
1:35 AM 42.3 °F 36.8 °F 37.9 °F 85% 29.95 in 10.0 mi South 9.2 mph - N/A   Mostly Cloudy
1:55 AM 43.0 °F 37.7 °F 38.7 °F 85% 29.94 in 10.0 mi South 9.2 mph 17.3 mph N/A   Overcast
2:15 AM 43.5 °F 40.1 °F 39.4 °F 85% 29.94 in 10.0 mi South 5.8 mph - N/A   Overcast
2:35 AM 43.9 °F 39.9 °F 40.1 °F 87% 29.94 in 10.0 mi South 6.9 mph - N/A   Overcast
2:55 AM 44.6 °F 41.4 °F 41.2 °F 88% 29.94 in 7.0 mi South 5.8 mph - N/A   Overcast
3:15 AM 44.6 °F 39.7 °F 41.7 °F 90% 29.93 in 5.0 mi SSE 9.2 mph - N/A   Overcast
3:35 AM 45.5 °F 40.8 °F 41.9 °F 87% 29.92 in 7.0 mi South 9.2 mph - N/A   Overcast
3:55 AM 45.9 °F 41.7 °F 42.3 °F 87% 29.92 in 7.0 mi SSE 8.1 mph - N/A   Overcast
4:15 AM 46.6 °F - 42.8 °F 87% 29.91 in 7.0 mi South 9.2 mph - N/A   Overcast
4:35 AM 47.3 °F - 42.8 °F 84% 29.91 in 10.0 mi South 10.4 mph 16.1 mph N/A   Overcast
4:55 AM 46.9 °F - 42.8 °F 86% 29.91 in 10.0 mi South 8.1 mph 16.1 mph N/A   Overcast
5:15 AM 47.3 °F - 42.8 °F 84% 29.91 in 10.0 mi South 9.2 mph 17.3 mph N/A   Overcast
5:35 AM 47.3 °F - 43.0 °F 85% 29.91 in 10.0 mi South 9.2 mph - N/A   Overcast
5:55 AM 47.7 °F - 43.3 °F 85% 29.89 in 10.0 mi SSE 10.4 mph 17.3 mph N/A   Overcast
6:15 AM 47.8 °F - 43.9 °F 86% 29.90 in 7.0 mi South 12.7 mph 18.4 mph N/A   Overcast
6:35 AM 47.8 °F - 43.9 °F 86% 29.89 in 7.0 mi SSE 10.4 mph - N/A   Overcast
6:55 AM 47.7 °F - 44.4 °F 89% 29.89 in 5.0 mi SSE 10.4 mph - N/A   Overcast
7:15 AM 47.7 °F - 45.1 °F 91% 29.89 in 2.5 mi South 8.1 mph - N/A   Overcast
7:35 AM 47.5 °F - 45.7 °F 93% 29.89 in 2.0 mi SSE 9.2 mph 16.1 mph N/A Rain Light Rain
7:55 AM 47.7 °F - 46.0 °F 94% 29.89 in 2.0 mi SSE 11.5 mph 18.4 mph N/A   Light Drizzle
8:15 AM 48.2 °F - 46.6 °F 94% 29.89 in 2.0 mi South 11.5 mph 18.4 mph N/A   Overcast
8:35 AM 48.6 °F - 46.9 °F 94% 29.89 in 2.5 mi South 13.8 mph 21.9 mph N/A   Overcast
8:55 AM 49.1 °F - 47.3 °F 93% 29.87 in 3.0 mi South 12.7 mph 19.6 mph N/A   Overcast
9:15 AM 49.5 °F - 47.5 °F 93% 29.87 in 2.5 mi South 11.5 mph 20.7 mph N/A   Overcast
9:35 AM 49.8 °F - 47.7 °F 92% 29.87 in 3.0 mi SSE 17.3 mph 25.3 mph N/A   Overcast
9:55 AM 50.0 °F - 47.8 °F 92% 29.86 in 3.0 mi South 13.8 mph 20.7 mph N/A   Overcast
10:15 AM 50.5 °F - 48.2 °F 92% 29.86 in 4.0 mi South 15.0 mph 23.0 mph N/A   Overcast
10:35 AM 51.1 °F - 48.6 °F 91% 29.85 in 4.0 mi South 15.0 mph 24.2 mph N/A   Overcast
10:55 AM 51.3 °F - 48.6 °F 90% 29.84 in 5.0 mi South 12.7 mph 23.0 mph N/A   Overcast
11:15 AM 51.8 °F - 48.9 °F 90% 29.83 in 5.0 mi South 13.8 mph 25.3 mph N/A   Overcast
11:35 AM 51.8 °F - 49.1 °F 90% 29.80 in 5.0 mi South 12.7 mph 19.6 mph N/A   Overcast
11:55 AM 52.0 °F - 49.5 °F 91% 29.79 in 4.0 mi SSE 15.0 mph 25.3 mph N/A   Overcast
12:15 PM 52.3 °F - 49.6 °F 91% 29.78 in 4.0 mi South 12.7 mph 28.8 mph N/A   Overcast
12:35 PM 52.9 °F - 49.8 °F 89% 29.76 in 5.0 mi South 10.4 mph 20.7 mph N/A   Overcast
12:55 PM 53.6 °F - 50.0 °F 88% 29.77 in 5.0 mi South 15.0 mph 20.7 mph N/A   Overcast
1:15 PM 54.3 °F - 50.2 °F 86% 29.76 in 5.0 mi SSE 13.8 mph 17.3 mph N/A   Overcast
1:35 PM 54.9 °F - 50.5 °F 85% 29.74 in 7.0 mi SSE 11.5 mph 19.6 mph N/A   Overcast
1:55 PM 56.1 °F - 50.9 °F 83% 29.73 in 7.0 mi South 11.5 mph 19.6 mph N/A   Mostly Cloudy
2:15 PM 56.7 °F - 51.1 °F 82% 29.73 in 10.0 mi South 12.7 mph 16.1 mph N/A   Overcast
2:35 PM 57.4 °F - 51.1 °F 79% 29.71 in 10.0 mi South 15.0 mph 18.4 mph N/A   Overcast
2:55 PM 58.1 °F - 51.1 °F 77% 29.70 in 10.0 mi South 12.7 mph 21.9 mph N/A   Mostly Cloudy
3:15 PM 58.6 °F - 50.9 °F 75% 29.70 in 10.0 mi South 16.1 mph 23.0 mph N/A   Scattered Clouds
3:35 PM 59.2 °F - 51.3 °F 75% 29.70 in 10.0 mi South 18.4 mph 28.8 mph N/A   Mostly Cloudy
3:55 PM 58.5 °F - 51.6 °F 78% 29.68 in 10.0 mi SSE 18.4 mph 24.2 mph N/A Rain Light Rain
4:15 PM 57.6 °F - 52.2 °F 82% 29.69 in 10.0 mi South 16.1 mph 26.5 mph N/A Rain Light Rain
4:35 PM 56.7 °F - 52.7 °F 87% 29.68 in 5.0 mi South 15.0 mph 26.5 mph 0.02 in Rain Light Rain
4:55 PM 56.3 °F - 53.1 °F 89% 29.66 in 7.0 mi South 19.6 mph 26.5 mph 0.04 in Rain Rain
5:15 PM 56.3 °F - 52.9 °F 88% 29.64 in 10.0 mi South 20.7 mph 24.2 mph 0.01 in Rain Light Rain
5:35 PM 56.5 °F - 52.9 °F 88% 29.64 in 10.0 mi SSE 15.0 mph 27.6 mph 0.02 in Rain Light Rain
5:55 PM 56.5 °F - 52.7 °F 87% 29.62 in 10.0 mi SSE 16.1 mph 26.5 mph 0.03 in Rain Light Rain
6:15 PM 56.7 °F - 52.9 °F 87% 29.60 in 10.0 mi SSE 15.0 mph 25.3 mph N/A   Light Drizzle
6:35 PM 57.2 °F - 53.4 °F 87% 29.62 in 10.0 mi South 18.4 mph 29.9 mph N/A   Overcast
6:55 PM 57.2 °F - 54.0 °F 89% 29.61 in 7.0 mi South 13.8 mph 26.5 mph 0.02 in Rain Rain
7:15 PM 57.2 °F - 54.5 °F 91% 29.63 in 2.0 mi South 19.6 mph 27.6 mph 0.08 in Rain Rain
7:35 PM 57.6 °F - 54.9 °F 91% 29.64 in 4.0 mi SSW 17.3 mph 32.2 mph 0.10 in Rain Rain
7:55 PM 57.4 °F - 55.0 °F 92% 29.64 in 7.0 mi South 18.4 mph 27.6 mph 0.12 in Rain Light Rain
8:15 PM 57.7 °F - 55.4 °F 92% 29.64 in 5.0 mi South 17.3 mph 29.9 mph 0.01 in   Drizzle
8:35 PM 58.3 °F - 55.4 °F 90% 29.62 in 7.0 mi South 19.6 mph 34.5 mph 0.01 in Rain Light Rain
8:55 PM 58.8 °F - 55.4 °F 88% 29.62 in 7.0 mi SSW 20.7 mph 29.9 mph 0.01 in   Overcast
9:15 PM 59.0 °F - 55.4 °F 88% 29.63 in 10.0 mi South 16.1 mph 26.5 mph N/A   Overcast
9:35 PM 59.0 °F - 55.4 °F 88% 29.63 in 10.0 mi SSW 16.1 mph 24.2 mph N/A   Overcast
9:55 PM 59.0 °F - 55.4 °F 88% 29.62 in 10.0 mi SSW 18.4 mph 27.6 mph N/A   Overcast
10:15 PM 59.0 °F - 55.4 °F 88% 29.62 in 10.0 mi SSW 16.1 mph 24.2 mph N/A   Overcast
10:35 PM 59.0 °F - 55.6 °F 88% 29.62 in 10.0 mi SSW 18.4 mph 24.2 mph N/A   Overcast
10:55 PM 59.0 °F - 55.6 °F 88% 29.62 in 10.0 mi SSW 12.7 mph 24.2 mph N/A   Overcast
11:15 PM 59.2 °F - 55.8 °F 88% 29.61 in 10.0 mi SSW 11.5 mph 23.0 mph N/A   Overcast
11:35 PM 59.5 °F - 55.8 °F 87% 29.61 in 10.0 mi SSW 16.1 mph 24.2 mph N/A   Overcast
11:55 PM 59.5 °F - 55.8 °F 87% 29.60 in 10.0 mi SSW 11.5 mph 21.9 mph N/A   Mostly Cloudy